sensor_id;sensor_type;location;lat;lon;timestamp;P1;durP1;ratioP1;P2;durP2;ratioP2
8413;SDS011;4244;48.684;9.028;2022-08-19T00:01:25;21.37;;;19.27;;
8413;SDS011;4244;48.684;9.028;2022-08-19T00:03:54;19.73;;;17.93;;
8413;SDS011;4244;48.684;9.028;2022-08-19T00:06:20;19.27;;;17.47;;
8413;SDS011;4244;48.684;9.028;2022-08-19T00:08:46;22.20;;;19.90;;
8413;SDS011;4244;48.684;9.028;2022-08-19T00:11:11;22.47;;;20.30;;
8413;SDS011;4244;48.684;9.028;2022-08-19T00:13:38;21.37;;;19.17;;
8413;SDS011;4244;48.684;9.028;2022-08-19T00:16:04;20.90;;;18.90;;
8413;SDS011;4244;48.684;9.028;2022-08-19T00:18:31;21.90;;;19.70;;
8413;SDS011;4244;48.684;9.028;2022-08-19T00:20:57;20.40;;;18.53;;
8413;SDS011;4244;48.684;9.028;2022-08-19T00:23:24;21.20;;;19.10;;
8413;SDS011;4244;48.684;9.028;2022-08-19T00:25:50;21.13;;;19.27;;
8413;SDS011;4244;48.684;9.028;2022-08-19T00:28:17;20.87;;;18.67;;
8413;SDS011;4244;48.684;9.028;2022-08-19T00:30:43;22.40;;;20.47;;
8413;SDS011;4244;48.684;9.028;2022-08-19T00:33:09;23.30;;;21.00;;
8413;SDS011;4244;48.684;9.028;2022-08-19T00:35:35;23.10;;;20.73;;
8413;SDS011;4244;48.684;9.028;2022-08-19T00:38:02;20.97;;;19.00;;
8413;SDS011;4244;48.684;9.028;2022-08-19T00:40:29;22.87;;;20.73;;
8413;SDS011;4244;48.684;9.028;2022-08-19T00:42:55;22.87;;;20.33;;
8413;SDS011;4244;48.684;9.028;2022-08-19T00:45:22;22.60;;;20.37;;
8413;SDS011;4244;48.684;9.028;2022-08-19T00:47:50;23.30;;;20.90;;
8413;SDS011;4244;48.684;9.028;2022-08-19T00:50:18;22.50;;;20.20;;
8413;SDS011;4244;48.684;9.028;2022-08-19T00:52:46;26.57;;;22.47;;
8413;SDS011;4244;48.684;9.028;2022-08-19T00:55:18;22.00;;;19.80;;
8413;SDS011;4244;48.684;9.028;2022-08-19T00:57:50;21.53;;;19.47;;
8413;SDS011;4244;48.684;9.028;2022-08-19T01:00:19;22.37;;;20.27;;
8413;SDS011;4244;48.684;9.028;2022-08-19T01:05:37;22.80;;;20.60;;
8413;SDS011;4244;48.684;9.028;2022-08-19T01:08:05;24.80;;;22.53;;
8413;SDS011;4244;48.684;9.028;2022-08-19T01:10:39;23.60;;;21.40;;
8413;SDS011;4244;48.684;9.028;2022-08-19T01:13:07;21.27;;;19.27;;
8413;SDS011;4244;48.684;9.028;2022-08-19T01:15:34;22.10;;;20.00;;
8413;SDS011;4244;48.684;9.028;2022-08-19T01:18:05;21.90;;;19.90;;
8413;SDS011;4244;48.684;9.028;2022-08-19T01:20:32;24.47;;;22.17;;
8413;SDS011;4244;48.684;9.028;2022-08-19T01:22:59;24.60;;;22.30;;
8413;SDS011;4244;48.684;9.028;2022-08-19T01:25:31;22.63;;;20.53;;
8413;SDS011;4244;48.684;9.028;2022-08-19T01:28:12;23.80;;;21.40;;
8413;SDS011;4244;48.684;9.028;2022-08-19T01:30:40;23.40;;;21.13;;
8413;SDS011;4244;48.684;9.028;2022-08-19T01:33:06;24.17;;;21.97;;
8413;SDS011;4244;48.684;9.028;2022-08-19T01:35:31;23.03;;;20.80;;
8413;SDS011;4244;48.684;9.028;2022-08-19T01:37:59;24.77;;;22.37;;
8413;SDS011;4244;48.684;9.028;2022-08-19T01:40:28;25.87;;;23.50;;
8413;SDS011;4244;48.684;9.028;2022-08-19T01:42:55;27.33;;;24.67;;
8413;SDS011;4244;48.684;9.028;2022-08-19T01:45:22;26.97;;;24.10;;
8413;SDS011;4244;48.684;9.028;2022-08-19T01:47:49;26.30;;;23.73;;
8413;SDS011;4244;48.684;9.028;2022-08-19T01:50:14;26.87;;;24.27;;
8413;SDS011;4244;48.684;9.028;2022-08-19T01:52:41;24.23;;;21.83;;
8413;SDS011;4244;48.684;9.028;2022-08-19T01:55:10;24.83;;;22.50;;
8413;SDS011;4244;48.684;9.028;2022-08-19T01:57:38;25.37;;;22.93;;
8413;SDS011;4244;48.684;9.028;2022-08-19T02:00:24;26.27;;;23.47;;
8413;SDS011;4244;48.684;9.028;2022-08-19T02:02:51;27.17;;;24.47;;
8413;SDS011;4244;48.684;9.028;2022-08-19T02:05:17;26.80;;;23.90;;
8413;SDS011;4244;48.684;9.028;2022-08-19T02:07:43;25.80;;;23.17;;
8413;SDS011;4244;48.684;9.028;2022-08-19T02:10:12;26.80;;;24.30;;
8413;SDS011;4244;48.684;9.028;2022-08-19T02:12:39;25.60;;;23.00;;
8413;SDS011;4244;48.684;9.028;2022-08-19T02:15:06;24.87;;;22.43;;
8413;SDS011;4244;48.684;9.028;2022-08-19T02:17:32;26.37;;;23.87;;
8413;SDS011;4244;48.684;9.028;2022-08-19T02:19:58;27.33;;;24.47;;
8413;SDS011;4244;48.684;9.028;2022-08-19T02:22:25;25.97;;;23.40;;
8413;SDS011;4244;48.684;9.028;2022-08-19T02:24:51;27.67;;;24.90;;
8413;SDS011;4244;48.684;9.028;2022-08-19T02:27:18;26.80;;;23.87;;
8413;SDS011;4244;48.684;9.028;2022-08-19T02:29:45;26.33;;;23.80;;
8413;SDS011;4244;48.684;9.028;2022-08-19T02:32:11;25.73;;;23.23;;
8413;SDS011;4244;48.684;9.028;2022-08-19T02:34:37;28.17;;;25.33;;
8413;SDS011;4244;48.684;9.028;2022-08-19T02:37:02;26.70;;;24.10;;
8413;SDS011;4244;48.684;9.028;2022-08-19T02:39:28;28.47;;;24.77;;
8413;SDS011;4244;48.684;9.028;2022-08-19T02:41:53;26.07;;;23.47;;
8413;SDS011;4244;48.684;9.028;2022-08-19T02:44:19;28.10;;;25.17;;
8413;SDS011;4244;48.684;9.028;2022-08-19T02:46:45;28.03;;;25.20;;
8413;SDS011;4244;48.684;9.028;2022-08-19T02:49:12;28.80;;;26.07;;
8413;SDS011;4244;48.684;9.028;2022-08-19T02:51:41;29.67;;;26.33;;
8413;SDS011;4244;48.684;9.028;2022-08-19T02:54:09;27.90;;;25.30;;
8413;SDS011;4244;48.684;9.028;2022-08-19T02:56:37;27.87;;;25.20;;
8413;SDS011;4244;48.684;9.028;2022-08-19T02:59:04;27.70;;;24.90;;
8413;SDS011;4244;48.684;9.028;2022-08-19T03:01:36;27.93;;;25.33;;
8413;SDS011;4244;48.684;9.028;2022-08-19T03:04:03;30.83;;;27.60;;
8413;SDS011;4244;48.684;9.028;2022-08-19T03:06:30;25.83;;;23.17;;
8413;SDS011;4244;48.684;9.028;2022-08-19T03:08:56;28.70;;;26.00;;
8413;SDS011;4244;48.684;9.028;2022-08-19T03:11:24;27.50;;;24.70;;
8413;SDS011;4244;48.684;9.028;2022-08-19T03:13:51;30.43;;;27.53;;
8413;SDS011;4244;48.684;9.028;2022-08-19T03:16:18;30.07;;;27.23;;
8413;SDS011;4244;48.684;9.028;2022-08-19T03:18:45;32.50;;;29.23;;
8413;SDS011;4244;48.684;9.028;2022-08-19T03:21:15;28.90;;;25.90;;
8413;SDS011;4244;48.684;9.028;2022-08-19T03:23:42;31.00;;;27.90;;
8413;SDS011;4244;48.684;9.028;2022-08-19T03:26:07;28.57;;;25.57;;
8413;SDS011;4244;48.684;9.028;2022-08-19T03:28:33;28.80;;;26.00;;
8413;SDS011;4244;48.684;9.028;2022-08-19T03:31:01;29.50;;;26.60;;
8413;SDS011;4244;48.684;9.028;2022-08-19T03:33:28;28.63;;;25.80;;
8413;SDS011;4244;48.684;9.028;2022-08-19T03:38:28;31.03;;;28.03;;
8413;SDS011;4244;48.684;9.028;2022-08-19T03:40:54;31.30;;;28.37;;
8413;SDS011;4244;48.684;9.028;2022-08-19T03:43:20;32.73;;;29.47;;
8413;SDS011;4244;48.684;9.028;2022-08-19T03:45:46;31.57;;;28.47;;
8413;SDS011;4244;48.684;9.028;2022-08-19T03:48:13;30.90;;;28.00;;
8413;SDS011;4244;48.684;9.028;2022-08-19T03:50:41;32.60;;;29.50;;
8413;SDS011;4244;48.684;9.028;2022-08-19T03:53:07;33.50;;;30.30;;
8413;SDS011;4244;48.684;9.028;2022-08-19T03:55:39;29.50;;;26.40;;
8413;SDS011;4244;48.684;9.028;2022-08-19T03:58:05;29.60;;;26.43;;
8413;SDS011;4244;48.684;9.028;2022-08-19T04:00:31;32.80;;;29.67;;
8413;SDS011;4244;48.684;9.028;2022-08-19T04:02:58;32.43;;;29.07;;
8413;SDS011;4244;48.684;9.028;2022-08-19T04:05:24;32.07;;;28.93;;
8413;SDS011;4244;48.684;9.028;2022-08-19T04:07:53;32.63;;;29.57;;
8413;SDS011;4244;48.684;9.028;2022-08-19T04:10:19;32.63;;;29.47;;
8413;SDS011;4244;48.684;9.028;2022-08-19T04:12:45;31.50;;;28.40;;
8413;SDS011;4244;48.684;9.028;2022-08-19T04:15:11;29.93;;;26.93;;
8413;SDS011;4244;48.684;9.028;2022-08-19T04:17:36;33.87;;;30.37;;
8413;SDS011;4244;48.684;9.028;2022-08-19T04:20:02;30.30;;;27.40;;
8413;SDS011;4244;48.684;9.028;2022-08-19T04:22:28;32.43;;;29.33;;
8413;SDS011;4244;48.684;9.028;2022-08-19T04:24:55;34.47;;;30.97;;
8413;SDS011;4244;48.684;9.028;2022-08-19T04:27:20;33.80;;;30.50;;
8413;SDS011;4244;48.684;9.028;2022-08-19T04:29:46;31.57;;;28.33;;
8413;SDS011;4244;48.684;9.028;2022-08-19T04:32:12;33.90;;;30.50;;
8413;SDS011;4244;48.684;9.028;2022-08-19T04:34:40;31.07;;;27.90;;
8413;SDS011;4244;48.684;9.028;2022-08-19T04:37:07;33.30;;;30.07;;
8413;SDS011;4244;48.684;9.028;2022-08-19T04:39:36;34.13;;;30.67;;
8413;SDS011;4244;48.684;9.028;2022-08-19T04:42:20;32.50;;;29.17;;
8413;SDS011;4244;48.684;9.028;2022-08-19T04:45:05;35.10;;;31.43;;
8413;SDS011;4244;48.684;9.028;2022-08-19T04:47:31;34.70;;;31.30;;
8413;SDS011;4244;48.684;9.028;2022-08-19T04:49:57;36.30;;;32.57;;
8413;SDS011;4244;48.684;9.028;2022-08-19T04:52:23;36.37;;;32.70;;
8413;SDS011;4244;48.684;9.028;2022-08-19T04:54:49;33.63;;;30.17;;
8413;SDS011;4244;48.684;9.028;2022-08-19T04:57:14;35.60;;;31.97;;
8413;SDS011;4244;48.684;9.028;2022-08-19T04:59:40;35.00;;;31.50;;
8413;SDS011;4244;48.684;9.028;2022-08-19T05:02:06;35.67;;;32.07;;
8413;SDS011;4244;48.684;9.028;2022-08-19T05:04:33;36.23;;;32.53;;
8413;SDS011;4244;48.684;9.028;2022-08-19T05:07:00;35.50;;;31.90;;
8413;SDS011;4244;48.684;9.028;2022-08-19T05:09:26;32.00;;;28.77;;
8413;SDS011;4244;48.684;9.028;2022-08-19T05:11:52;34.90;;;31.17;;
8413;SDS011;4244;48.684;9.028;2022-08-19T05:14:18;33.77;;;30.47;;
8413;SDS011;4244;48.684;9.028;2022-08-19T05:16:45;37.47;;;33.77;;
8413;SDS011;4244;48.684;9.028;2022-08-19T05:19:11;37.37;;;33.60;;
8413;SDS011;4244;48.684;9.028;2022-08-19T05:21:56;34.33;;;31.03;;
8413;SDS011;4244;48.684;9.028;2022-08-19T05:24:40;33.53;;;30.20;;
8413;SDS011;4244;48.684;9.028;2022-08-19T05:27:06;33.47;;;30.17;;
8413;SDS011;4244;48.684;9.028;2022-08-19T05:29:32;33.13;;;29.73;;
8413;SDS011;4244;48.684;9.028;2022-08-19T05:31:59;32.37;;;29.23;;
8413;SDS011;4244;48.684;9.028;2022-08-19T05:34:26;34.17;;;30.83;;
8413;SDS011;4244;48.684;9.028;2022-08-19T05:36:56;35.93;;;32.33;;
8413;SDS011;4244;48.684;9.028;2022-08-19T05:39:24;34.00;;;30.73;;
8413;SDS011;4244;48.684;9.028;2022-08-19T05:41:53;30.83;;;27.90;;
8413;SDS011;4244;48.684;9.028;2022-08-19T05:44:24;31.57;;;28.27;;
8413;SDS011;4244;48.684;9.028;2022-08-19T05:46:51;33.13;;;29.83;;
8413;SDS011;4244;48.684;9.028;2022-08-19T05:49:20;34.03;;;30.73;;
8413;SDS011;4244;48.684;9.028;2022-08-19T05:51:47;32.43;;;28.07;;
8413;SDS011;4244;48.684;9.028;2022-08-19T05:54:13;35.33;;;31.90;;
8413;SDS011;4244;48.684;9.028;2022-08-19T05:56:40;36.07;;;32.50;;
8413;SDS011;4244;48.684;9.028;2022-08-19T05:59:06;33.03;;;29.70;;
8413;SDS011;4244;48.684;9.028;2022-08-19T06:01:39;35.00;;;31.40;;
8413;SDS011;4244;48.684;9.028;2022-08-19T06:04:06;30.50;;;27.30;;
8413;SDS011;4244;48.684;9.028;2022-08-19T06:06:32;34.50;;;31.17;;
8413;SDS011;4244;48.684;9.028;2022-08-19T06:09:00;32.97;;;29.73;;
8413;SDS011;4244;48.684;9.028;2022-08-19T06:11:38;32.17;;;29.17;;
8413;SDS011;4244;48.684;9.028;2022-08-19T06:14:09;35.37;;;31.93;;
8413;SDS011;4244;48.684;9.028;2022-08-19T06:16:37;32.93;;;29.77;;
8413;SDS011;4244;48.684;9.028;2022-08-19T06:19:05;33.27;;;29.97;;
8413;SDS011;4244;48.684;9.028;2022-08-19T06:21:33;35.90;;;32.23;;
8413;SDS011;4244;48.684;9.028;2022-08-19T06:24:02;34.80;;;31.33;;
8413;SDS011;4244;48.684;9.028;2022-08-19T06:26:29;36.30;;;32.80;;
8413;SDS011;4244;48.684;9.028;2022-08-19T06:28:55;34.40;;;31.10;;
8413;SDS011;4244;48.684;9.028;2022-08-19T06:31:23;35.73;;;32.23;;
8413;SDS011;4244;48.684;9.028;2022-08-19T06:33:50;35.70;;;32.13;;
8413;SDS011;4244;48.684;9.028;2022-08-19T06:36:21;34.20;;;30.70;;
8413;SDS011;4244;48.684;9.028;2022-08-19T06:38:52;32.40;;;29.20;;
8413;SDS011;4244;48.684;9.028;2022-08-19T06:41:18;37.30;;;33.50;;
8413;SDS011;4244;48.684;9.028;2022-08-19T06:43:44;36.70;;;32.80;;
8413;SDS011;4244;48.684;9.028;2022-08-19T06:46:11;35.43;;;31.90;;
8413;SDS011;4244;48.684;9.028;2022-08-19T06:48:38;30.27;;;27.27;;
8413;SDS011;4244;48.684;9.028;2022-08-19T06:51:04;32.70;;;29.40;;
8413;SDS011;4244;48.684;9.028;2022-08-19T06:53:31;33.47;;;30.10;;
8413;SDS011;4244;48.684;9.028;2022-08-19T06:55:57;33.20;;;30.00;;
8413;SDS011;4244;48.684;9.028;2022-08-19T06:58:26;34.40;;;31.00;;
8413;SDS011;4244;48.684;9.028;2022-08-19T07:00:56;32.80;;;29.57;;
8413;SDS011;4244;48.684;9.028;2022-08-19T07:03:33;32.73;;;29.43;;
8413;SDS011;4244;48.684;9.028;2022-08-19T07:06:06;33.10;;;29.90;;
8413;SDS011;4244;48.684;9.028;2022-08-19T07:08:35;31.70;;;28.70;;
8413;SDS011;4244;48.684;9.028;2022-08-19T07:11:02;28.97;;;26.27;;
8413;SDS011;4244;48.684;9.028;2022-08-19T07:13:31;30.03;;;27.03;;
8413;SDS011;4244;48.684;9.028;2022-08-19T07:15:58;33.10;;;30.10;;
8413;SDS011;4244;48.684;9.028;2022-08-19T07:18:27;29.87;;;26.97;;
8413;SDS011;4244;48.684;9.028;2022-08-19T07:21:01;30.30;;;27.40;;
8413;SDS011;4244;48.684;9.028;2022-08-19T07:23:28;29.63;;;26.73;;
8413;SDS011;4244;48.684;9.028;2022-08-19T07:25:54;28.47;;;25.67;;
8413;SDS011;4244;48.684;9.028;2022-08-19T07:28:20;31.93;;;28.20;;
8413;SDS011;4244;48.684;9.028;2022-08-19T07:30:47;32.70;;;29.70;;
8413;SDS011;4244;48.684;9.028;2022-08-19T07:33:13;29.67;;;26.67;;
8413;SDS011;4244;48.684;9.028;2022-08-19T07:35:39;29.83;;;26.80;;
8413;SDS011;4244;48.684;9.028;2022-08-19T07:38:04;28.30;;;25.57;;
8413;SDS011;4244;48.684;9.028;2022-08-19T07:40:30;27.03;;;24.43;;
8413;SDS011;4244;48.684;9.028;2022-08-19T07:42:56;27.50;;;24.70;;
8413;SDS011;4244;48.684;9.028;2022-08-19T07:45:21;27.17;;;24.67;;
8413;SDS011;4244;48.684;9.028;2022-08-19T07:47:47;28.57;;;25.90;;
8413;SDS011;4244;48.684;9.028;2022-08-19T07:50:13;28.53;;;25.90;;
8413;SDS011;4244;48.684;9.028;2022-08-19T07:52:39;28.83;;;26.10;;
8413;SDS011;4244;48.684;9.028;2022-08-19T07:55:06;26.53;;;23.87;;
8413;SDS011;4244;48.684;9.028;2022-08-19T07:57:33;26.83;;;24.33;;
8413;SDS011;4244;48.684;9.028;2022-08-19T07:59:58;29.80;;;26.90;;
8413;SDS011;4244;48.684;9.028;2022-08-19T08:02:24;27.17;;;24.60;;
8413;SDS011;4244;48.684;9.028;2022-08-19T08:04:50;28.30;;;25.60;;
8413;SDS011;4244;48.684;9.028;2022-08-19T08:07:34;28.77;;;26.10;;
8413;SDS011;4244;48.684;9.028;2022-08-19T08:10:18;23.80;;;21.70;;
8413;SDS011;4244;48.684;9.028;2022-08-19T08:12:44;28.07;;;25.17;;
8413;SDS011;4244;48.684;9.028;2022-08-19T08:15:11;29.03;;;26.13;;
8413;SDS011;4244;48.684;9.028;2022-08-19T08:17:43;27.43;;;24.73;;
8413;SDS011;4244;48.684;9.028;2022-08-19T08:20:09;27.93;;;25.33;;
8413;SDS011;4244;48.684;9.028;2022-08-19T08:22:36;26.67;;;24.07;;
8413;SDS011;4244;48.684;9.028;2022-08-19T08:25:25;29.10;;;26.10;;
8413;SDS011;4244;48.684;9.028;2022-08-19T08:27:50;30.33;;;27.27;;
8413;SDS011;4244;48.684;9.028;2022-08-19T08:30:18;28.77;;;25.97;;
8413;SDS011;4244;48.684;9.028;2022-08-19T08:32:45;29.03;;;26.07;;
8413;SDS011;4244;48.684;9.028;2022-08-19T08:35:12;27.67;;;24.87;;
8413;SDS011;4244;48.684;9.028;2022-08-19T08:37:40;26.80;;;24.20;;
8413;SDS011;4244;48.684;9.028;2022-08-19T08:40:07;28.63;;;25.63;;
8413;SDS011;4244;48.684;9.028;2022-08-19T08:42:36;28.80;;;25.93;;
8413;SDS011;4244;48.684;9.028;2022-08-19T08:45:14;25.93;;;23.53;;
8413;SDS011;4244;48.684;9.028;2022-08-19T08:47:43;23.47;;;21.40;;
8413;SDS011;4244;48.684;9.028;2022-08-19T08:50:25;25.43;;;23.00;;
8413;SDS011;4244;48.684;9.028;2022-08-19T08:53:00;26.70;;;24.00;;
8413;SDS011;4244;48.684;9.028;2022-08-19T08:55:27;27.40;;;24.63;;
8413;SDS011;4244;48.684;9.028;2022-08-19T09:00:32;24.50;;;22.20;;
8413;SDS011;4244;48.684;9.028;2022-08-19T09:03:02;24.70;;;22.23;;
8413;SDS011;4244;48.684;9.028;2022-08-19T09:05:50;25.93;;;23.57;;
8413;SDS011;4244;48.684;9.028;2022-08-19T09:08:25;26.03;;;23.63;;
8413;SDS011;4244;48.684;9.028;2022-08-19T09:11:14;27.10;;;24.60;;
8413;SDS011;4244;48.684;9.028;2022-08-19T09:13:51;26.10;;;23.80;;
8413;SDS011;4244;48.684;9.028;2022-08-19T09:16:34;23.37;;;21.17;;
8413;SDS011;4244;48.684;9.028;2022-08-19T09:19:02;25.97;;;23.53;;
8413;SDS011;4244;48.684;9.028;2022-08-19T09:21:29;22.33;;;20.40;;
8413;SDS011;4244;48.684;9.028;2022-08-19T09:23:55;22.93;;;20.90;;
8413;SDS011;4244;48.684;9.028;2022-08-19T09:26:21;25.27;;;22.60;;
8413;SDS011;4244;48.684;9.028;2022-08-19T09:28:49;24.20;;;21.97;;
8413;SDS011;4244;48.684;9.028;2022-08-19T09:31:19;26.63;;;23.90;;
8413;SDS011;4244;48.684;9.028;2022-08-19T09:33:47;26.20;;;23.80;;
8413;SDS011;4244;48.684;9.028;2022-08-19T09:36:16;23.27;;;21.17;;
8413;SDS011;4244;48.684;9.028;2022-08-19T09:38:43;25.43;;;23.10;;
8413;SDS011;4244;48.684;9.028;2022-08-19T09:41:13;26.07;;;23.77;;
8413;SDS011;4244;48.684;9.028;2022-08-19T09:43:41;24.97;;;22.60;;
8413;SDS011;4244;48.684;9.028;2022-08-19T09:46:09;23.80;;;21.70;;
8413;SDS011;4244;48.684;9.028;2022-08-19T09:48:35;25.37;;;23.10;;
8413;SDS011;4244;48.684;9.028;2022-08-19T09:51:02;25.87;;;23.57;;
8413;SDS011;4244;48.684;9.028;2022-08-19T09:53:29;24.20;;;22.13;;
8413;SDS011;4244;48.684;9.028;2022-08-19T09:55:56;22.87;;;20.80;;
8413;SDS011;4244;48.684;9.028;2022-08-19T09:58:21;26.83;;;24.43;;
8413;SDS011;4244;48.684;9.028;2022-08-19T10:00:52;23.27;;;21.23;;
8413;SDS011;4244;48.684;9.028;2022-08-19T10:03:22;21.90;;;19.87;;
8413;SDS011;4244;48.684;9.028;2022-08-19T10:05:47;24.83;;;22.63;;
8413;SDS011;4244;48.684;9.028;2022-08-19T10:08:14;24.10;;;21.93;;
8413;SDS011;4244;48.684;9.028;2022-08-19T10:10:41;22.20;;;20.20;;
8413;SDS011;4244;48.684;9.028;2022-08-19T10:13:11;23.27;;;21.13;;
8413;SDS011;4244;48.684;9.028;2022-08-19T10:15:37;21.53;;;19.80;;
8413;SDS011;4244;48.684;9.028;2022-08-19T10:18:05;23.73;;;21.73;;
8413;SDS011;4244;48.684;9.028;2022-08-19T10:20:31;24.60;;;22.40;;
8413;SDS011;4244;48.684;9.028;2022-08-19T10:22:57;24.47;;;21.97;;
8413;SDS011;4244;48.684;9.028;2022-08-19T10:25:24;22.80;;;20.70;;
8413;SDS011;4244;48.684;9.028;2022-08-19T10:27:51;23.03;;;20.97;;
8413;SDS011;4244;48.684;9.028;2022-08-19T10:30:18;23.57;;;21.37;;
8413;SDS011;4244;48.684;9.028;2022-08-19T10:32:44;21.00;;;19.10;;
8413;SDS011;4244;48.684;9.028;2022-08-19T10:35:11;22.80;;;20.87;;
8413;SDS011;4244;48.684;9.028;2022-08-19T10:37:37;21.10;;;19.10;;
8413;SDS011;4244;48.684;9.028;2022-08-19T10:40:05;21.50;;;19.40;;
8413;SDS011;4244;48.684;9.028;2022-08-19T10:42:33;20.40;;;18.70;;
8413;SDS011;4244;48.684;9.028;2022-08-19T10:45:00;20.67;;;18.57;;
8413;SDS011;4244;48.684;9.028;2022-08-19T10:47:26;19.30;;;17.60;;
8413;SDS011;4244;48.684;9.028;2022-08-19T10:49:52;18.30;;;16.63;;
8413;SDS011;4244;48.684;9.028;2022-08-19T10:52:38;18.37;;;16.60;;
8413;SDS011;4244;48.684;9.028;2022-08-19T10:55:06;17.07;;;15.57;;
8413;SDS011;4244;48.684;9.028;2022-08-19T10:57:50;16.37;;;14.97;;
8413;SDS011;4244;48.684;9.028;2022-08-19T11:00:17;15.10;;;13.90;;
8413;SDS011;4244;48.684;9.028;2022-08-19T11:02:44;16.07;;;14.63;;
8413;SDS011;4244;48.684;9.028;2022-08-19T11:05:11;15.83;;;14.30;;
8413;SDS011;4244;48.684;9.028;2022-08-19T11:07:40;16.83;;;15.07;;
8413;SDS011;4244;48.684;9.028;2022-08-19T11:10:08;15.60;;;14.30;;
8413;SDS011;4244;48.684;9.028;2022-08-19T11:12:36;14.83;;;13.53;;
8413;SDS011;4244;48.684;9.028;2022-08-19T11:15:04;16.63;;;15.23;;
8413;SDS011;4244;48.684;9.028;2022-08-19T11:17:31;15.87;;;14.37;;
8413;SDS011;4244;48.684;9.028;2022-08-19T11:19:57;16.73;;;15.23;;
8413;SDS011;4244;48.684;9.028;2022-08-19T11:22:22;18.77;;;17.17;;
8413;SDS011;4244;48.684;9.028;2022-08-19T11:24:48;18.37;;;16.77;;
8413;SDS011;4244;48.684;9.028;2022-08-19T11:27:13;15.07;;;13.60;;
8413;SDS011;4244;48.684;9.028;2022-08-19T11:29:39;13.80;;;12.60;;
8413;SDS011;4244;48.684;9.028;2022-08-19T11:32:08;16.93;;;15.33;;
8413;SDS011;4244;48.684;9.028;2022-08-19T11:34:35;15.10;;;13.90;;
8413;SDS011;4244;48.684;9.028;2022-08-19T11:37:03;15.60;;;14.33;;
8413;SDS011;4244;48.684;9.028;2022-08-19T11:39:31;16.30;;;14.80;;
8413;SDS011;4244;48.684;9.028;2022-08-19T11:41:58;15.67;;;14.27;;
8413;SDS011;4244;48.684;9.028;2022-08-19T11:44:25;16.23;;;14.73;;
8413;SDS011;4244;48.684;9.028;2022-08-19T11:46:50;16.90;;;15.27;;
8413;SDS011;4244;48.684;9.028;2022-08-19T11:49:17;15.27;;;13.97;;
8413;SDS011;4244;48.684;9.028;2022-08-19T11:51:44;14.10;;;12.90;;
8413;SDS011;4244;48.684;9.028;2022-08-19T11:54:11;14.10;;;12.90;;
8413;SDS011;4244;48.684;9.028;2022-08-19T11:56:39;15.27;;;14.07;;
8413;SDS011;4244;48.684;9.028;2022-08-19T11:59:06;14.80;;;13.60;;
8413;SDS011;4244;48.684;9.028;2022-08-19T12:01:32;15.90;;;14.50;;
8413;SDS011;4244;48.684;9.028;2022-08-19T12:03:59;14.67;;;13.37;;
8413;SDS011;4244;48.684;9.028;2022-08-19T12:06:26;14.90;;;13.70;;
8413;SDS011;4244;48.684;9.028;2022-08-19T12:08:57;14.20;;;12.90;;
8413;SDS011;4244;48.684;9.028;2022-08-19T12:11:24;12.23;;;11.23;;
8413;SDS011;4244;48.684;9.028;2022-08-19T12:13:51;13.40;;;12.20;;
8413;SDS011;4244;48.684;9.028;2022-08-19T12:16:18;12.20;;;11.17;;
8413;SDS011;4244;48.684;9.028;2022-08-19T12:18:45;12.43;;;11.30;;
8413;SDS011;4244;48.684;9.028;2022-08-19T12:21:12;11.90;;;10.80;;
8413;SDS011;4244;48.684;9.028;2022-08-19T12:23:40;11.50;;;10.40;;
8413;SDS011;4244;48.684;9.028;2022-08-19T12:26:06;11.20;;;10.30;;
8413;SDS011;4244;48.684;9.028;2022-08-19T12:28:34;12.80;;;11.70;;
8413;SDS011;4244;48.684;9.028;2022-08-19T12:31:00;11.77;;;10.77;;
8413;SDS011;4244;48.684;9.028;2022-08-19T12:33:26;12.23;;;11.23;;
8413;SDS011;4244;48.684;9.028;2022-08-19T12:35:53;11.23;;;10.33;;
8413;SDS011;4244;48.684;9.028;2022-08-19T12:38:19;10.70;;;9.90;;
8413;SDS011;4244;48.684;9.028;2022-08-19T12:40:48;10.60;;;9.73;;
8413;SDS011;4244;48.684;9.028;2022-08-19T12:43:17;12.00;;;10.90;;
8413;SDS011;4244;48.684;9.028;2022-08-19T12:45:43;12.00;;;11.00;;
8413;SDS011;4244;48.684;9.028;2022-08-19T12:48:10;10.57;;;9.77;;
8413;SDS011;4244;48.684;9.028;2022-08-19T12:50:35;9.97;;;9.10;;
8413;SDS011;4244;48.684;9.028;2022-08-19T12:53:04;11.20;;;10.30;;
8413;SDS011;4244;48.684;9.028;2022-08-19T12:55:32;11.40;;;10.40;;
8413;SDS011;4244;48.684;9.028;2022-08-19T12:57:58;10.70;;;9.80;;
8413;SDS011;4244;48.684;9.028;2022-08-19T13:00:26;12.13;;;11.20;;
8413;SDS011;4244;48.684;9.028;2022-08-19T13:02:52;10.40;;;9.60;;
8413;SDS011;4244;48.684;9.028;2022-08-19T13:05:20;11.37;;;10.47;;
8413;SDS011;4244;48.684;9.028;2022-08-19T13:07:50;13.17;;;11.73;;
8413;SDS011;4244;48.684;9.028;2022-08-19T13:10:18;11.57;;;10.57;;
8413;SDS011;4244;48.684;9.028;2022-08-19T13:12:47;12.40;;;11.30;;
8413;SDS011;4244;48.684;9.028;2022-08-19T13:15:14;11.73;;;10.87;;
8413;SDS011;4244;48.684;9.028;2022-08-19T13:17:44;11.30;;;10.40;;
8413;SDS011;4244;48.684;9.028;2022-08-19T13:20:12;11.77;;;10.87;;
8413;SDS011;4244;48.684;9.028;2022-08-19T13:22:38;11.37;;;10.57;;
8413;SDS011;4244;48.684;9.028;2022-08-19T13:25:04;11.30;;;10.47;;
8413;SDS011;4244;48.684;9.028;2022-08-19T13:27:30;11.57;;;10.67;;
8413;SDS011;4244;48.684;9.028;2022-08-19T13:29:56;11.27;;;10.17;;
8413;SDS011;4244;48.684;9.028;2022-08-19T13:32:41;11.97;;;11.07;;
8413;SDS011;4244;48.684;9.028;2022-08-19T13:35:25;10.67;;;9.87;;
8413;SDS011;4244;48.684;9.028;2022-08-19T13:37:51;11.37;;;10.47;;
8413;SDS011;4244;48.684;9.028;2022-08-19T13:40:18;11.47;;;10.60;;
8413;SDS011;4244;48.684;9.028;2022-08-19T13:42:47;10.67;;;9.87;;
8413;SDS011;4244;48.684;9.028;2022-08-19T13:45:15;10.63;;;9.73;;
8413;SDS011;4244;48.684;9.028;2022-08-19T13:47:44;11.10;;;10.30;;
8413;SDS011;4244;48.684;9.028;2022-08-19T13:50:12;11.10;;;10.20;;
8413;SDS011;4244;48.684;9.028;2022-08-19T13:52:39;11.13;;;10.37;;
8413;SDS011;4244;48.684;9.028;2022-08-19T13:55:06;13.30;;;12.20;;
8413;SDS011;4244;48.684;9.028;2022-08-19T13:57:32;14.20;;;13.10;;
8413;SDS011;4244;48.684;9.028;2022-08-19T13:59:58;14.23;;;13.03;;
8413;SDS011;4244;48.684;9.028;2022-08-19T14:02:24;14.53;;;13.43;;
8413;SDS011;4244;48.684;9.028;2022-08-19T14:04:51;14.40;;;13.30;;
8413;SDS011;4244;48.684;9.028;2022-08-19T14:07:16;14.40;;;13.20;;
8413;SDS011;4244;48.684;9.028;2022-08-19T14:09:43;13.50;;;12.50;;
8413;SDS011;4244;48.684;9.028;2022-08-19T14:12:09;15.13;;;13.87;;
8413;SDS011;4244;48.684;9.028;2022-08-19T14:14:38;13.57;;;12.27;;
8413;SDS011;4244;48.684;9.028;2022-08-19T14:17:07;13.63;;;12.60;;
8413;SDS011;4244;48.684;9.028;2022-08-19T14:19:34;14.10;;;13.03;;
8413;SDS011;4244;48.684;9.028;2022-08-19T14:22:00;12.87;;;11.90;;
8413;SDS011;4244;48.684;9.028;2022-08-19T14:24:26;14.60;;;13.60;;
8413;SDS011;4244;48.684;9.028;2022-08-19T14:26:51;14.20;;;13.00;;
8413;SDS011;4244;48.684;9.028;2022-08-19T14:29:17;13.43;;;12.53;;
8413;SDS011;4244;48.684;9.028;2022-08-19T14:31:43;15.60;;;12.37;;
8413;SDS011;4244;48.684;9.028;2022-08-19T14:34:09;13.90;;;12.90;;
8413;SDS011;4244;48.684;9.028;2022-08-19T14:36:35;13.53;;;12.43;;
8413;SDS011;4244;48.684;9.028;2022-08-19T14:39:02;14.50;;;13.50;;
8413;SDS011;4244;48.684;9.028;2022-08-19T14:41:28;13.50;;;12.40;;
8413;SDS011;4244;48.684;9.028;2022-08-19T14:43:55;14.97;;;13.87;;
8413;SDS011;4244;48.684;9.028;2022-08-19T14:46:22;14.10;;;12.93;;
8413;SDS011;4244;48.684;9.028;2022-08-19T14:48:50;12.73;;;11.70;;
8413;SDS011;4244;48.684;9.028;2022-08-19T14:51:17;13.03;;;12.13;;
8413;SDS011;4244;48.684;9.028;2022-08-19T14:53:44;13.93;;;12.67;;
8413;SDS011;4244;48.684;9.028;2022-08-19T14:56:11;13.70;;;12.70;;
8413;SDS011;4244;48.684;9.028;2022-08-19T14:58:39;13.47;;;12.37;;
8413;SDS011;4244;48.684;9.028;2022-08-19T15:01:06;13.70;;;12.67;;